createdAt,value
2022-12-15T00:02:26.624Z,7.30
2022-12-15T00:05:11.543Z,4.18
2022-12-15T00:07:56.669Z,4.80
2022-12-15T00:10:41.519Z,4.65
2022-12-15T00:13:31.108Z,2.30
2022-12-15T00:16:16.375Z,3.40
2022-12-15T00:19:01.600Z,3.78
2022-12-15T00:21:47.299Z,3.35
2022-12-15T00:24:32.329Z,2.42
2022-12-15T00:27:17.270Z,2.88
2022-12-15T00:30:02.103Z,9.23
2022-12-15T00:32:46.976Z,3.60
2022-12-15T00:35:32.437Z,2.35
2022-12-15T00:38:17.283Z,1.33
2022-12-15T00:40:43.823Z,2.50
2022-12-15T00:43:12.053Z,1.83
2022-12-15T00:45:57.839Z,1.80
2022-12-15T00:48:24.439Z,1.80
2022-12-15T00:50:53.857Z,4.75
2022-12-15T00:53:41.151Z,2.10
2022-12-15T00:56:27.329Z,2.10
2022-12-15T00:59:12.845Z,2.72
2022-12-15T01:01:58.361Z,1.25
2022-12-15T01:04:43.493Z,3.80
2022-12-15T01:07:28.934Z,1.90
2022-12-15T01:10:13.750Z,4.15
2022-12-15T01:12:58.999Z,3.90
2022-12-15T01:15:44.589Z,3.30
2022-12-15T01:18:29.723Z,5.47
2022-12-15T01:21:05.404Z,6.50
2022-12-15T01:23:33.183Z,4.25
2022-12-15T01:26:00.689Z,5.30
2022-12-15T01:28:27.351Z,6.20
2022-12-15T01:30:54.417Z,5.40
2022-12-15T01:33:21.325Z,6.32
2022-12-15T01:36:01.052Z,5.40
2022-12-15T01:38:28.587Z,5.63
2022-12-15T01:41:04.095Z,5.82
2022-12-15T01:43:35.539Z,4.88
2022-12-15T01:46:17.884Z,6.90
2022-12-15T01:48:49.053Z,7.57
2022-12-15T01:51:24.878Z,7.30
2022-12-15T01:54:19.052Z,7.00
2022-12-15T01:56:54.935Z,7.65
2022-12-15T01:59:27.058Z,7.07
2022-12-15T02:01:53.709Z,10.32
2022-12-15T02:04:22.647Z,8.35
2022-12-15T02:06:49.635Z,9.80
2022-12-15T02:09:17.469Z,9.23
2022-12-15T02:11:59.429Z,11.20
2022-12-15T02:17:22.286Z,14.05
2022-12-15T02:20:25.908Z,11.18
2022-12-15T02:23:29.488Z,13.63
2022-12-15T02:26:18.069Z,14.60
2022-12-15T02:29:03.364Z,14.85
2022-12-15T02:31:50.662Z,11.48
2022-12-15T02:34:40.537Z,10.68
2022-12-15T02:37:13.447Z,13.38
2022-12-15T02:39:40.046Z,14.93
2022-12-15T02:42:06.762Z,14.93
2022-12-15T02:44:41.362Z,12.65
2022-12-15T02:47:37.487Z,15.10
2022-12-15T02:50:13.347Z,13.25
2022-12-15T02:52:58.432Z,9.68
2022-12-15T02:55:34.423Z,15.70
2022-12-15T02:58:08.752Z,8.57
2022-12-15T03:00:40.830Z,6.35
2022-12-15T03:05:34.707Z,7.70
2022-12-15T03:08:01.394Z,11.30
2022-12-15T03:10:28.147Z,16.80
2022-12-15T03:12:54.883Z,14.02
2022-12-15T03:15:21.626Z,12.95
2022-12-15T03:17:48.189Z,9.02
2022-12-15T03:20:14.719Z,10.48
2022-12-15T03:22:41.282Z,10.95
2022-12-15T03:25:08.231Z,10.00
2022-12-15T03:27:35.274Z,9.20
2022-12-15T03:30:01.936Z,16.73
2022-12-15T03:32:29.703Z,9.02
2022-12-15T03:34:56.247Z,10.88
2022-12-15T03:37:22.774Z,13.23
2022-12-15T03:39:49.640Z,11.90
2022-12-15T03:42:36.208Z,8.40
2022-12-15T03:45:03.043Z,7.57
2022-12-15T03:47:29.561Z,10.32
2022-12-15T03:49:56.069Z,6.10
2022-12-15T03:52:22.586Z,5.72
2022-12-15T03:54:49.108Z,6.45
2022-12-15T03:57:15.624Z,6.40
2022-12-15T03:59:42.183Z,8.05
2022-12-15T04:02:12.132Z,8.05
2022-12-15T04:04:38.791Z,9.02
2022-12-15T04:07:05.379Z,8.13
2022-12-15T04:09:31.899Z,9.68
2022-12-15T04:11:58.409Z,7.78
2022-12-15T04:14:24.952Z,8.52
2022-12-15T04:16:51.460Z,9.75
2022-12-15T04:19:36.455Z,8.77
2022-12-15T04:22:03.643Z,13.07
2022-12-15T04:24:48.796Z,10.20
2022-12-15T04:27:33.814Z,8.85
2022-12-15T04:30:18.785Z,9.45
2022-12-15T04:33:03.816Z,13.18
2022-12-15T04:35:52.579Z,8.77
2022-12-15T04:38:43.953Z,11.68
2022-12-15T04:41:37.846Z,10.50
2022-12-15T04:44:23.778Z,11.40
2022-12-15T04:47:09.206Z,8.93
2022-12-15T04:49:54.145Z,9.00
2022-12-15T04:52:39.393Z,10.07
2022-12-15T04:55:25.192Z,10.07
2022-12-15T04:58:10.205Z,10.98
2022-12-15T05:00:55.987Z,9.55
2022-12-15T05:03:40.898Z,11.50
2022-12-15T05:06:26.800Z,8.77
2022-12-15T05:09:11.719Z,10.27
2022-12-15T05:11:57.365Z,14.32
2022-12-15T05:14:42.549Z,9.80
2022-12-15T05:17:27.376Z,12.05
2022-12-15T05:20:12.575Z,9.07
2022-12-15T05:22:57.375Z,8.93
2022-12-15T05:25:42.298Z,9.52
2022-12-15T05:28:27.167Z,11.38
2022-12-15T05:31:12.252Z,15.10
2022-12-15T05:33:59.586Z,12.38
2022-12-15T05:36:29.277Z,10.23
2022-12-15T05:38:55.763Z,14.10
2022-12-15T05:41:22.380Z,13.00
2022-12-15T05:43:48.897Z,11.98
2022-12-15T05:46:15.466Z,19.67
2022-12-15T05:48:42.048Z,13.90
2022-12-15T05:51:10.608Z,9.88
2022-12-15T05:53:38.610Z,8.10
2022-12-15T05:56:08.275Z,9.05
2022-12-15T05:58:38.725Z,10.75
2022-12-15T06:01:17.588Z,10.20
2022-12-15T06:03:44.766Z,9.52
2022-12-15T06:06:12.888Z,10.07
2022-12-15T06:08:41.343Z,14.25
2022-12-15T06:11:09.929Z,16.20
2022-12-15T06:13:36.502Z,12.77
2022-12-15T06:16:24.258Z,12.05
2022-12-15T06:18:55.017Z,10.10
2022-12-15T06:21:24.811Z,10.32
2022-12-15T06:23:52.012Z,10.05
2022-12-15T06:26:20.580Z,9.38
2022-12-15T06:28:48.336Z,10.05
2022-12-15T06:31:16.206Z,12.75
2022-12-15T06:33:43.050Z,11.32
2022-12-15T06:36:13.229Z,10.25
2022-12-15T06:38:42.082Z,15.75
2022-12-15T06:41:08.592Z,13.93
2022-12-15T06:43:35.358Z,10.70
2022-12-15T06:46:03.147Z,13.35
2022-12-15T06:48:30.224Z,11.23
2022-12-15T06:50:57.143Z,12.23
2022-12-15T06:53:24.519Z,16.05
2022-12-15T06:55:51.277Z,13.25
2022-12-15T06:58:18.283Z,16.48
2022-12-15T07:00:46.169Z,15.10
2022-12-15T07:03:16.139Z,11.07
2022-12-15T07:05:43.869Z,11.32
2022-12-15T07:08:11.971Z,13.60
2022-12-15T07:10:43.266Z,14.93
2022-12-15T07:13:13.533Z,14.95
2022-12-15T07:15:41.599Z,12.45
2022-12-15T07:18:10.287Z,15.00
2022-12-15T07:20:36.837Z,12.63
2022-12-15T07:23:09.513Z,15.20
2022-12-15T07:25:36.981Z,15.65
2022-12-15T07:28:04.035Z,14.20
2022-12-15T07:30:36.777Z,15.00
2022-12-15T07:33:05.589Z,16.77
2022-12-15T07:35:32.457Z,16.33
2022-12-15T07:37:58.973Z,18.65
2022-12-15T07:40:25.671Z,17.35
2022-12-15T07:42:52.182Z,15.93
2022-12-15T07:45:18.794Z,18.55
2022-12-15T07:47:50.084Z,18.25
2022-12-15T07:50:18.482Z,18.10
2022-12-15T07:52:45.946Z,18.52
2022-12-15T07:55:13.314Z,19.88
2022-12-15T07:57:39.818Z,18.65
2022-12-15T08:00:09.113Z,19.80
2022-12-15T08:02:40.504Z,19.55
2022-12-15T08:05:07.692Z,17.20
2022-12-15T08:07:34.203Z,19.48
2022-12-15T08:10:00.765Z,18.65
2022-12-15T08:12:28.447Z,19.42
2022-12-15T08:14:55.039Z,21.38
2022-12-15T08:17:21.573Z,15.18
2022-12-15T08:19:48.112Z,17.95
2022-12-15T08:22:15.512Z,17.88
2022-12-15T08:24:42.168Z,16.55
2022-12-15T08:27:08.894Z,20.15
2022-12-15T08:29:52.101Z,23.20
2022-12-15T08:32:19.205Z,17.73
2022-12-15T08:34:47.731Z,21.17
2022-12-15T08:37:26.794Z,19.73
2022-12-15T08:39:54.704Z,19.05
2022-12-15T08:42:21.399Z,19.67
2022-12-15T08:44:51.479Z,24.20
2022-12-15T08:47:18.088Z,24.83
2022-12-15T08:49:45.049Z,23.80
2022-12-15T08:52:12.470Z,25.38
2022-12-15T08:54:39.077Z,22.20
2022-12-15T08:57:05.563Z,22.40
2022-12-15T08:59:32.141Z,27.35
2022-12-15T09:01:59.354Z,24.30
2022-12-15T09:04:26.201Z,24.13
2022-12-15T09:06:52.808Z,21.00
2022-12-15T09:09:20.097Z,23.02
2022-12-15T09:11:46.716Z,24.00
2022-12-15T09:14:13.258Z,21.70
2022-12-15T09:16:39.945Z,29.73
2022-12-15T09:19:08.159Z,23.05
2022-12-15T09:21:34.882Z,26.15
2022-12-15T09:24:02.879Z,27.52
2022-12-15T09:26:32.092Z,26.55
2022-12-15T09:28:59.017Z,26.73
2022-12-15T09:31:36.003Z,27.33
2022-12-15T09:34:02.596Z,24.25
2022-12-15T09:36:30.824Z,27.45
2022-12-15T09:38:58.017Z,24.73
2022-12-15T09:41:28.291Z,25.48
2022-12-15T09:44:06.680Z,25.83
2022-12-15T09:46:51.082Z,27.23
2022-12-15T09:49:29.559Z,25.75
2022-12-15T09:52:08.833Z,27.70
2022-12-15T09:54:38.185Z,30.40
2022-12-15T09:57:19.219Z,24.83
2022-12-15T10:00:05.216Z,24.73
2022-12-15T10:02:50.368Z,33.40
2022-12-15T10:06:07.400Z,26.13
2022-12-15T10:08:24.321Z,27.67
2022-12-15T10:10:59.165Z,25.92
2022-12-15T10:13:53.506Z,24.42
2022-12-15T10:19:55.207Z,25.25
2022-12-15T10:22:27.503Z,26.77
2022-12-15T10:25:11.155Z,24.15
2022-12-15T10:28:09.585Z,25.65
2022-12-15T10:30:59.088Z,25.23
2022-12-15T10:33:35.515Z,26.60
2022-12-15T10:36:07.481Z,29.30
2022-12-15T10:41:08.755Z,23.17
2022-12-15T10:43:40.901Z,23.65
2022-12-15T10:46:24.504Z,23.67
2022-12-15T10:48:54.704Z,27.55
2022-12-15T10:51:31.623Z,30.52
2022-12-15T10:54:09.799Z,24.38
2022-12-15T10:56:50.353Z,26.55
2022-12-15T10:59:31.978Z,28.65
2022-12-15T11:02:23.925Z,24.00
2022-12-15T11:05:16.912Z,21.13
2022-12-15T11:07:55.818Z,24.50
2022-12-15T11:10:27.315Z,26.05
2022-12-15T11:13:15.499Z,33.17
2022-12-15T11:15:50.873Z,31.15
2022-12-15T11:18:58.644Z,28.20
2022-12-15T11:21:28.033Z,29.65
2022-12-15T11:24:13.603Z,28.63
2022-12-15T11:26:46.809Z,28.63
2022-12-15T11:29:42.199Z,29.58
2022-12-15T11:32:12.197Z,31.98
2022-12-15T11:34:45.203Z,31.73
2022-12-15T11:37:34.428Z,28.50
2022-12-15T11:40:19.987Z,24.70
2022-12-15T11:43:00.968Z,28.08
2022-12-15T11:45:41.681Z,29.80
2022-12-15T11:48:13.658Z,31.17
2022-12-15T11:51:01.887Z,29.95
2022-12-15T11:53:54.263Z,29.63
2022-12-15T11:56:48.942Z,32.20
2022-12-15T11:59:50.125Z,31.40
2022-12-15T12:02:16.696Z,33.80
2022-12-15T12:05:06.603Z,33.67
2022-12-15T12:07:42.305Z,37.22
2022-12-15T12:10:48.525Z,31.98
2022-12-15T12:13:27.284Z,36.35
2022-12-15T12:16:26.248Z,37.42
2022-12-15T12:19:02.579Z,31.88
2022-12-15T12:21:35.952Z,38.40
2022-12-15T12:24:23.633Z,32.83
2022-12-15T12:27:10.706Z,35.38
2022-12-15T12:29:48.824Z,35.35
2022-12-15T12:32:30.124Z,35.42
2022-12-15T12:35:30.908Z,37.70
2022-12-15T12:37:54.936Z,52.05
2022-12-15T12:40:53.796Z,44.45
2022-12-15T12:43:40.767Z,42.20
2022-12-15T12:46:16.811Z,44.22
2022-12-15T12:48:56.146Z,37.38
2022-12-15T12:51:31.825Z,37.63
2022-12-15T12:53:59.803Z,36.10
2022-12-15T12:56:40.091Z,36.53
2022-12-15T12:59:29.796Z,37.70
2022-12-15T13:02:14.783Z,36.88
2022-12-15T13:04:44.371Z,39.97
2022-12-15T13:07:37.672Z,54.83
2022-12-15T13:10:21.984Z,45.72
2022-12-15T13:12:55.808Z,39.88
2022-12-15T13:15:31.426Z,42.13
2022-12-15T13:18:08.140Z,38.45
2022-12-15T13:20:36.943Z,37.78
2022-12-15T13:23:21.755Z,35.10
2022-12-15T13:25:57.244Z,51.65
2022-12-15T13:28:35.892Z,42.47
2022-12-15T13:31:21.114Z,47.70
2022-12-15T13:33:50.464Z,50.83
2022-12-15T13:36:41.687Z,36.75
2022-12-15T13:39:11.276Z,43.38
2022-12-15T13:42:00.236Z,42.47
2022-12-15T13:44:37.566Z,47.05
2022-12-15T13:47:20.476Z,57.63
2022-12-15T13:50:13.045Z,47.65
2022-12-15T13:53:17.197Z,50.97
2022-12-15T13:55:37.199Z,49.55
2022-12-15T13:58:11.892Z,39.67
2022-12-15T14:00:39.339Z,41.40
2022-12-15T14:03:10.226Z,58.15
2022-12-15T14:05:38.983Z,53.72
2022-12-15T14:08:15.687Z,48.17
2022-12-15T14:10:51.113Z,45.85
2022-12-15T14:13:24.836Z,58.13
2022-12-15T14:15:57.999Z,51.67
2022-12-15T14:18:29.060Z,56.50
2022-12-15T14:20:55.943Z,46.17
2022-12-15T14:23:31.300Z,45.95
2022-12-15T14:26:08.366Z,40.10
2022-12-15T14:28:36.936Z,55.30
2022-12-15T14:31:07.104Z,48.28
2022-12-15T14:33:37.449Z,65.95
2022-12-15T14:36:12.022Z,45.53
2022-12-15T14:38:51.172Z,54.88
2022-12-15T14:41:24.929Z,50.55
2022-12-15T14:44:32.193Z,62.42
2022-12-15T14:46:47.660Z,45.10
2022-12-15T14:49:21.094Z,40.75
2022-12-15T14:51:52.476Z,45.92
2022-12-15T14:54:31.900Z,52.67
2022-12-15T14:57:22.439Z,43.88
2022-12-15T14:59:51.218Z,48.53
2022-12-15T15:02:26.715Z,43.08
2022-12-15T15:03:03.889Z,25.00
2022-12-15T15:05:04.931Z,75.78
2022-12-15T15:07:33.013Z,58.83
2022-12-15T15:10:01.471Z,48.30
2022-12-15T15:12:44.022Z,43.67
2022-12-15T15:15:19.568Z,54.38
2022-12-15T15:17:52.001Z,58.22
2022-12-15T15:20:27.872Z,46.95
2022-12-15T15:23:11.209Z,47.28
2022-12-15T15:25:40.496Z,45.22
2022-12-15T15:28:21.617Z,44.58
2022-12-15T15:31:06.808Z,42.53
2022-12-15T15:33:33.616Z,43.67
2022-12-15T15:36:02.720Z,43.72
2022-12-15T15:38:40.008Z,45.03
2022-12-15T15:41:16.679Z,49.67
2022-12-15T15:43:43.429Z,51.80
2022-12-15T15:46:22.181Z,38.60
2022-12-15T15:49:09.248Z,40.10
2022-12-15T15:51:36.059Z,41.20
2022-12-15T15:54:05.686Z,41.25
2022-12-15T15:56:32.294Z,41.83
2022-12-15T15:59:02.684Z,38.80
2022-12-15T16:01:31.385Z,41.60
2022-12-15T16:03:58.025Z,51.25
2022-12-15T16:06:24.598Z,46.90
2022-12-15T16:08:53.720Z,39.92
2022-12-15T16:11:24.372Z,39.33
2022-12-15T16:13:50.893Z,37.22
2022-12-15T16:16:28.070Z,43.28
2022-12-15T16:18:54.582Z,46.00
2022-12-15T16:21:27.601Z,35.42
2022-12-15T16:23:55.285Z,44.45
2022-12-15T16:26:31.058Z,42.83
2022-12-15T16:28:57.725Z,38.25
2022-12-15T16:31:34.268Z,45.03
2022-12-15T16:34:05.638Z,40.58
2022-12-15T16:36:32.969Z,44.08
2022-12-15T16:38:59.861Z,45.72
2022-12-15T16:41:27.665Z,47.33
2022-12-15T16:43:54.530Z,50.85
2022-12-15T16:46:21.426Z,41.53
2022-12-15T16:48:48.247Z,35.35
2022-12-15T16:51:37.128Z,43.67
2022-12-15T16:54:04.165Z,43.17
2022-12-15T16:56:30.870Z,41.47
2022-12-15T16:59:23.493Z,45.08
2022-12-15T17:01:44.545Z,43.95
2022-12-15T17:04:11.483Z,35.97
2022-12-15T17:06:38.114Z,39.97
2022-12-15T17:09:05.292Z,44.78
2022-12-15T17:11:32.312Z,50.30
2022-12-15T17:14:00.733Z,46.20
2022-12-15T17:16:28.732Z,52.40
2022-12-15T17:18:55.777Z,41.58
2022-12-15T17:21:54.747Z,40.10
2022-12-15T17:24:22.319Z,40.90
2022-12-15T17:26:49.826Z,40.58
2022-12-15T17:29:22.847Z,42.58
2022-12-15T17:31:50.111Z,46.28
2022-12-15T17:34:31.613Z,43.70
2022-12-15T17:37:04.235Z,47.08
2022-12-15T17:39:33.206Z,42.67
2022-12-15T17:42:01.369Z,45.30
2022-12-15T17:44:37.207Z,45.35
2022-12-15T17:47:07.138Z,59.33
2022-12-15T17:49:37.213Z,43.65
2022-12-15T17:52:22.766Z,45.53
2022-12-15T17:54:50.707Z,44.88
2022-12-15T17:57:17.503Z,45.75
2022-12-15T17:59:44.034Z,40.13
2022-12-15T18:02:13.680Z,41.45
2022-12-15T18:04:41.333Z,50.38
2022-12-15T18:07:18.461Z,66.05
2022-12-15T18:09:45.209Z,52.22
2022-12-15T18:12:25.230Z,45.38
2022-12-15T18:14:52.377Z,50.75
2022-12-15T18:17:20.304Z,44.67
2022-12-15T18:19:47.069Z,67.30
2022-12-15T18:22:17.773Z,47.80
2022-12-15T18:24:44.462Z,49.28
2022-12-15T18:27:24.883Z,45.35
2022-12-15T18:29:52.067Z,62.63
2022-12-15T18:32:20.821Z,58.42
2022-12-15T18:34:47.329Z,50.13
2022-12-15T18:37:16.620Z,60.42
2022-12-15T18:39:43.553Z,52.97
2022-12-15T18:42:15.483Z,132.00
2022-12-15T18:44:47.696Z,56.42
2022-12-15T18:47:20.530Z,58.40
2022-12-15T18:49:47.390Z,59.60
2022-12-15T18:52:19.927Z,52.50
2022-12-15T18:54:51.307Z,69.13
2022-12-15T18:57:36.274Z,47.60
2022-12-15T19:00:17.822Z,57.33
2022-12-15T19:02:44.623Z,46.45
2022-12-15T19:05:27.651Z,53.47
2022-12-15T19:08:10.286Z,48.92
2022-12-15T19:10:42.134Z,48.75
2022-12-15T19:15:39.994Z,68.93
2022-12-15T19:18:25.140Z,49.58
2022-12-15T19:21:10.079Z,53.00
2022-12-15T19:23:36.695Z,50.85
2022-12-15T19:26:03.346Z,57.97
2022-12-15T19:28:29.832Z,52.40
2022-12-15T19:30:56.343Z,44.45
2022-12-15T19:33:22.919Z,64.90
2022-12-15T19:35:51.362Z,59.28
2022-12-15T19:38:25.590Z,76.70
2022-12-15T19:40:53.642Z,49.30
2022-12-15T19:43:21.489Z,69.97
2022-12-15T19:45:48.957Z,57.05
2022-12-15T19:48:18.780Z,55.60
2022-12-15T19:50:51.769Z,66.63
2022-12-15T19:53:25.494Z,66.38
2022-12-15T19:55:55.139Z,56.35
2022-12-15T19:58:31.426Z,83.63
2022-12-15T20:01:19.673Z,63.25
2022-12-15T20:03:49.543Z,54.90
2022-12-15T20:06:18.796Z,47.05
2022-12-15T20:08:49.079Z,56.67
2022-12-15T20:11:24.475Z,52.05
2022-12-15T20:13:52.353Z,53.70
2022-12-15T20:16:19.995Z,53.33
2022-12-15T20:18:51.126Z,49.42
2022-12-15T20:21:22.315Z,60.97
2022-12-15T20:26:21.085Z,48.47
2022-12-15T20:28:48.043Z,68.03
2022-12-15T20:31:17.243Z,47.05
2022-12-15T20:33:44.821Z,60.70
2022-12-15T20:36:24.502Z,52.42
2022-12-15T20:38:52.011Z,53.97
2022-12-15T20:41:26.325Z,63.58
2022-12-15T20:43:54.589Z,55.47
2022-12-15T20:46:26.120Z,52.13
2022-12-15T20:49:00.749Z,54.05
2022-12-15T20:51:30.964Z,57.00
2022-12-15T20:54:00.207Z,59.50
2022-12-15T20:56:27.478Z,48.92
2022-12-15T20:58:55.750Z,52.95
2022-12-15T21:01:28.644Z,49.65
2022-12-15T21:03:57.119Z,46.13
2022-12-15T21:06:25.307Z,49.35
2022-12-15T21:08:52.475Z,53.35
2022-12-15T21:11:20.615Z,61.58
2022-12-15T21:13:48.539Z,59.50
2022-12-15T21:16:19.599Z,39.30
2022-12-15T21:19:19.290Z,47.80
2022-12-15T21:21:40.693Z,54.85
2022-12-15T21:24:28.060Z,42.15
2022-12-15T21:26:55.211Z,46.53
2022-12-15T21:29:24.153Z,49.83
2022-12-15T21:31:50.685Z,49.58
2022-12-15T21:34:17.320Z,44.47
2022-12-15T21:36:47.426Z,40.92
2022-12-15T21:39:29.602Z,40.03
2022-12-15T21:41:59.608Z,44.33
2022-12-15T21:44:26.115Z,35.88
2022-12-15T21:46:52.697Z,35.40
2022-12-15T21:49:21.380Z,40.17
2022-12-15T21:51:53.704Z,34.28
2022-12-15T21:54:31.214Z,32.78
2022-12-15T21:57:02.592Z,37.45
2022-12-15T21:59:32.190Z,34.65
2022-12-15T22:02:02.165Z,43.97
2022-12-15T22:04:31.742Z,47.47
2022-12-15T22:06:58.287Z,31.13
2022-12-15T22:09:24.807Z,37.67
2022-12-15T22:11:54.099Z,48.70
2022-12-15T22:14:34.734Z,39.30
2022-12-15T22:17:11.540Z,32.83
2022-12-15T22:19:38.050Z,35.45
2022-12-15T22:22:04.576Z,42.22
2022-12-15T22:24:31.115Z,36.58
2022-12-15T22:26:57.758Z,40.58
2022-12-15T22:29:24.892Z,40.22
2022-12-15T22:31:51.749Z,41.30
2022-12-15T22:34:24.208Z,44.97
2022-12-15T22:36:50.816Z,41.15
2022-12-15T22:39:19.093Z,39.70
2022-12-15T22:41:48.785Z,37.67
2022-12-15T22:44:19.434Z,41.85
2022-12-15T22:46:46.818Z,42.10
2022-12-15T22:49:17.506Z,45.97
2022-12-15T22:51:44.751Z,35.70
2022-12-15T22:54:22.578Z,36.75
2022-12-15T22:56:53.626Z,36.42
2022-12-15T22:59:28.019Z,51.13
2022-12-15T23:01:55.337Z,36.10
2022-12-15T23:04:22.436Z,36.35
2022-12-15T23:06:48.974Z,54.22
2022-12-15T23:09:15.509Z,49.90
2022-12-15T23:11:42.052Z,37.20
2022-12-15T23:14:14.261Z,45.88
2022-12-15T23:16:41.660Z,36.45
2022-12-15T23:19:08.880Z,44.42
2022-12-15T23:21:36.186Z,53.38
2022-12-15T23:24:02.739Z,39.83
2022-12-15T23:26:29.242Z,50.35
2022-12-15T23:28:55.813Z,37.72
2022-12-15T23:31:22.722Z,46.13
2022-12-15T23:33:49.947Z,48.08
2022-12-15T23:36:18.742Z,41.50
2022-12-15T23:38:45.253Z,40.70
2022-12-15T23:41:16.034Z,47.33
2022-12-15T23:43:42.524Z,45.38
2022-12-15T23:46:09.396Z,42.50
2022-12-15T23:48:38.722Z,48.22
2022-12-15T23:51:08.187Z,61.17
2022-12-15T23:53:35.693Z,50.88
2022-12-15T23:56:09.537Z,42.65
2022-12-15T23:58:37.381Z,36.10
